Time;durP1;ratioP1;P1;durP2;ratioP2;P2;SDS_P1;SDS_P2;PMS_P1;PMS_P2;Temp;Humidity;BMP_temperature;BMP_pressure;BME280_temperature;BME280_humidity;BME280_pressure;Samples;Min_cycle;Max_cycle;Signal;HPM_P1;HPM_P2
2021/08/28 00:00:51;;;;;;;;;;;;;;;28.83;43.89;100325.59;5076822;28;718;-36
2021/08/28 00:03:19;;;;;;;;;;;;;;;28.87;43.71;100328.72;5076562;28;1901;-33
2021/08/28 00:05:45;;;;;;;;;;;;;;;28.90;43.81;100325.63;5076808;28;765;-34
2021/08/28 00:08:10;;;;;;;;;;;;;;;28.96;43.72;100323.97;5076234;28;813;-38
2021/08/28 00:10:35;;;;;;;;;;;;;;;29.00;43.66;100322.53;5076928;28;847;-36
2021/08/28 00:13:00;;;;;;;;;;;;;;;28.95;43.85;100327.69;5076137;28;1013;-38
2021/08/28 00:15:26;;;;;;;;;;;;;;;28.92;44.03;100323.53;5076788;28;866;-37
2021/08/28 00:17:51;;;;;;;;;;;;;;;28.98;43.87;100326.50;5076456;28;747;-38
2021/08/28 00:20:16;;;;;;;;;;;;;;;29.00;43.82;100333.38;5075794;28;839;-38
2021/08/28 00:22:41;;;;;;;;;;;;;;;29.07;43.86;100334.22;5076588;28;1910;-38
2021/08/28 00:25:07;;;;;;;;;;;;;;;29.00;44.01;100336.06;5076682;28;863;-38
2021/08/28 00:27:33;;;;;;;;;;;;;;;29.16;43.55;100340.25;5075979;28;1006;-38
2021/08/28 00:29:59;;;;;;;;;;;;;;;29.06;43.91;100329.81;5092551;28;1321;-37
2021/08/28 00:32:24;;;;;;;;;;;;;;;29.08;43.78;100335.88;5090578;28;878;-38
2021/08/28 00:34:49;;;;;;;;;;;;;;;29.09;43.79;100331.31;5075817;28;768;-35
2021/08/28 00:37:15;;;;;;;;;;;;;;;29.12;43.84;100338.16;5076841;28;815;-36
2021/08/28 00:39:40;;;;;;;;;;;;;;;29.09;43.90;100342.13;5075980;28;842;-38
2021/08/28 00:42:05;;;;;;;;;;;;;;;29.06;44.07;100343.38;5075842;28;982;-38
2021/08/28 00:44:30;;;;;;;;;;;;;;;29.08;44.01;100338.59;5076434;28;1964;-38
2021/08/28 00:46:56;;;;;;;;;;;;;;;29.15;43.79;100343.16;5075853;28;813;-38
2021/08/28 00:49:21;;;;;;;;;;;;;;;29.09;43.86;100344.84;5081437;28;1535;-38
2021/08/28 00:51:46;;;;;;;;;;;;;;;29.11;43.54;100339.22;5096598;28;746;-37
2021/08/28 00:54:11;;;;;;;;;;;;;;;29.07;43.78;100342.34;5096533;28;847;-37
2021/08/28 00:56:37;;;;;;;;;;;;;;;29.18;43.52;100342.75;5095215;28;1132;-39
2021/08/28 00:59:02;;;;;;;;;;;;;;;29.09;43.89;100340.25;5094833;28;1506;-35
2021/08/28 01:01:29;;;;;;;;;;;;;;;29.15;43.63;100341.31;5078823;28;861;-36
2021/08/28 01:03:55;;;;;;;;;;;;;;;29.11;43.91;100333.81;5074812;28;1983;-36
2021/08/28 01:06:22;;;;;;;;;;;;;;;29.14;43.99;100336.09;5074880;28;791;-39
2021/08/28 01:08:58;;;;;;;;;;;;;;;29.05;44.50;100339.00;5076264;28;809;-34
2021/08/28 01:12:01;;;;;;;;;;;;;;;28.41;44.39;100231.00;5075364;28;939;-33
2021/08/28 01:14:27;;;;;;;;;;;;;;;29.08;44.12;100341.28;5014361;28;1329;-40
2021/08/28 01:16:54;;;;;;;;;;;;;;;29.11;44.44;100342.78;5014214;28;810;-32
2021/08/28 01:19:25;;;;;;;;;;;;;;;29.03;44.50;100338.38;5041731;28;971;-35
2021/08/28 01:21:51;;;;;;;;;;;;;;;29.20;44.12;100335.25;5096353;28;815;-41
2021/08/28 01:24:16;;;;;;;;;;;;;;;29.16;44.32;100350.28;5094230;28;1967;-34
2021/08/28 01:27:07;;;;;;;;;;;;;;;29.14;44.55;100346.94;5091650;28;970;-41
2021/08/28 01:29:33;;;;;;;;;;;;;;;29.16;44.16;100345.66;5072578;28;1392;-39
2021/08/28 01:31:58;;;;;;;;;;;;;;;29.08;44.48;100346.72;5074601;28;780;-33
2021/08/28 01:34:24;;;;;;;;;;;;;;;29.13;44.34;100346.09;5075745;28;748;-35
2021/08/28 01:36:49;;;;;;;;;;;;;;;29.11;44.31;100339.22;5075916;28;768;-35
2021/08/28 01:39:14;;;;;;;;;;;;;;;29.16;44.11;100342.16;5075263;28;859;-36
2021/08/28 01:41:40;;;;;;;;;;;;;;;29.09;44.35;100342.94;5079088;28;959;-37
2021/08/28 01:44:12;;;;;;;;;;;;;;;29.09;44.37;100339.44;5094912;28;1901;-37
2021/08/28 01:46:40;;;;;;;;;;;;;;;29.12;44.42;100346.28;5094600;28;564;-33
2021/08/28 01:49:06;;;;;;;;;;;;;;;29.12;44.49;100340.88;5090535;28;1551;-36
2021/08/28 01:51:32;;;;;;;;;;;;;;;29.11;44.58;100342.78;5075544;28;803;-32
2021/08/28 01:53:57;;;;;;;;;;;;;;;29.13;44.47;100346.09;5075077;28;995;-40
2021/08/28 01:56:25;;;;;;;;;;;;;;;29.09;44.68;100334.00;5078984;28;939;-35
2021/08/28 01:58:51;;;;;;;;;;;;;;;29.09;44.60;100331.31;5078420;28;784;-37
2021/08/28 02:01:16;;;;;;;;;;;;;;;29.21;44.48;100334.22;5078916;28;748;-35
2021/08/28 02:03:41;;;;;;;;;;;;;;;29.15;44.57;100333.19;5078719;28;1913;-36
2021/08/28 02:06:07;;;;;;;;;;;;;;;29.16;44.76;100336.72;5079116;28;732;-33
2021/08/28 02:08:36;;;;;;;;;;;;;;;29.21;44.63;100335.06;5085418;28;1449;-36
2021/08/28 02:11:03;;;;;;;;;;;;;;;29.19;44.80;100330.91;5098058;28;743;-40
2021/08/28 02:14:01;;;;;;;;;;;;;;;29.16;44.59;100332.13;5082986;28;1029;-40
2021/08/28 02:16:26;;;;;;;;;;;;;;;29.08;44.78;100330.47;5044650;28;1439;-41
2021/08/28 02:18:53;;;;;;;;;;;;;;;29.14;44.50;100323.41;5078969;28;790;-37
2021/08/28 02:21:18;;;;;;;;;;;;;;;29.13;44.49;100320.91;5077109;28;815;-36
2021/08/28 02:23:58;;;;;;;;;;;;;;;29.09;44.54;100325.88;5077658;28;1961;-36
2021/08/28 02:26:24;;;;;;;;;;;;;;;29.06;44.69;100320.88;5076885;28;1080;-34
2021/08/28 02:28:59;;;;;;;;;;;;;;;29.12;44.40;100321.91;5078382;28;958;-33
2021/08/28 02:31:24;;;;;;;;;;;;;;;29.16;44.55;100325.91;5077666;28;799;-37
2021/08/28 02:33:50;;;;;;;;;;;;;;;29.19;44.49;100320.91;5090184;28;767;-37
2021/08/28 02:36:15;;;;;;;;;;;;;;;29.20;44.36;100332.56;5097412;28;744;-37
2021/08/28 02:38:41;;;;;;;;;;;;;;;29.20;44.54;100332.56;5097694;28;887;-36
2021/08/28 02:41:06;;;;;;;;;;;;;;;29.21;44.67;100339.66;5097031;28;878;-36
2021/08/28 02:43:31;;;;;;;;;;;;;;;29.14;44.90;100336.09;5093667;28;1955;-35
2021/08/28 02:45:57;;;;;;;;;;;;;;;29.25;44.64;100340.03;5098402;28;847;-40
2021/08/28 02:48:23;;;;;;;;;;;;;;;29.26;44.57;100350.66;5098176;28;1077;-34
2021/08/28 02:50:48;;;;;;;;;;;;;;;29.23;44.55;100345.66;5080367;28;1629;-36
2021/08/28 02:53:13;;;;;;;;;;;;;;;29.27;44.51;100352.34;5078664;28;814;-40
2021/08/28 02:55:39;;;;;;;;;;;;;;;29.26;44.40;100357.97;5080811;28;1456;-36
2021/08/28 02:58:04;;;;;;;;;;;;;;;29.27;44.34;100357.78;5076639;28;940;-39
2021/08/28 03:00:29;;;;;;;;;;;;;;;29.24;44.54;100352.78;5076822;28;1071;-37
2021/08/28 03:02:54;;;;;;;;;;;;;;;29.26;44.48;100358.81;5076239;28;1909;-37
2021/08/28 03:05:20;;;;;;;;;;;;;;;29.27;44.57;100359.63;5075695;28;771;-34
2021/08/28 03:07:45;;;;;;;;;;;;;;;29.09;43.83;100363.81;5076219;28;835;-34
2021/08/28 03:10:11;;;;;;;;;;;;;;;29.26;43.06;100372.34;5077365;28;1332;-33
2021/08/28 03:12:36;;;;;;;;;;;;;;;29.29;43.46;100385.50;5096051;28;855;-33
2021/08/28 03:15:02;;;;;;;;;;;;;;;29.29;43.93;100371.97;5096243;28;1494;-40
2021/08/28 03:17:27;;;;;;;;;;;;;;;29.26;44.35;100376.94;5076018;28;1652;-35
2021/08/28 03:19:53;;;;;;;;;;;;;;;29.28;44.20;100381.09;5080138;28;1399;-34
2021/08/28 03:22:19;;;;;;;;;;;;;;;29.27;44.48;100382.16;5080348;28;1957;-33
2021/08/28 03:24:45;;;;;;;;;;;;;;;29.31;44.19;100388.81;5096344;28;811;-41
2021/08/28 03:27:10;;;;;;;;;;;;;;;29.34;44.35;100385.69;5083044;28;864;-41
2021/08/28 03:29:35;;;;;;;;;;;;;;;29.36;44.28;100395.50;5077914;28;801;-32
2021/08/28 03:32:01;;;;;;;;;;;;;;;29.34;44.31;100395.72;5083308;28;1488;-35
2021/08/28 03:34:26;;;;;;;;;;;;;;;29.24;44.78;100400.69;5081335;28;907;-40
2021/08/28 03:36:51;;;;;;;;;;;;;;;28.99;48.02;100401.25;5076198;28;775;-41
2021/08/28 03:39:17;;;;;;;;;;;;;;;25.65;52.04;100398.16;5075915;28;764;-42
2021/08/28 03:41:42;;;;;;;;;;;;;;;24.27;55.48;100408.28;5076823;28;1006;-45
2021/08/28 03:44:12;;;;;;;;;;;;;;;23.62;56.38;100401.94;5076966;28;1956;-34
2021/08/28 03:46:37;;;;;;;;;;;;;;;23.23;56.83;100410.44;5076707;28;754;-31
2021/08/28 03:49:02;;;;;;;;;;;;;;;23.00;58.94;100408.38;5078741;28;1606;-30
2021/08/28 03:51:28;;;;;;;;;;;;;;;23.34;62.25;100411.97;5097282;28;542;-35
2021/08/28 03:53:53;;;;;;;;;;;;;;;23.07;61.89;100423.81;5095462;28;1037;-44
2021/08/28 03:56:18;;;;;;;;;;;;;;;25.43;61.30;100416.81;5087800;28;1332;-39
2021/08/28 03:58:43;;;;;;;;;;;;;;;27.02;53.52;100433.13;5076811;28;767;-59
2021/08/28 04:01:09;;;;;;;;;;;;;;;27.73;52.50;100427.16;5076751;28;871;-34
2021/08/28 04:03:34;;;;;;;;;;;;;;;28.20;51.26;100427.50;5076517;28;1917;-44
2021/08/28 04:05:59;;;;;;;;;;;;;;;28.47;50.54;100427.69;5076750;28;851;-33
2021/08/28 04:08:24;;;;;;;;;;;;;;;28.55;49.25;100433.97;5076800;28;1442;-41
2021/08/28 04:10:50;;;;;;;;;;;;;;;28.19;51.19;100430.41;5076403;28;518;-33
2021/08/28 04:13:15;;;;;;;;;;;;;;;26.46;49.15;100430.94;5076468;28;1104;-33
2021/08/28 04:15:40;;;;;;;;;;;;;;;23.33;56.05;100434.44;5076661;28;850;-42
2021/08/28 04:18:06;;;;;;;;;;;;;;;22.22;55.83;100426.28;5076165;28;523;-36
2021/08/28 04:20:31;;;;;;;;;;;;;;;21.67;54.90;100425.50;5076928;28;756;-40
2021/08/28 04:22:56;;;;;;;;;;;;;;;21.23;55.13;100427.09;5076036;28;1965;-41
2021/08/28 04:25:23;;;;;;;;;;;;;;;21.18;54.73;100430.22;5076188;28;755;-42
2021/08/28 04:27:48;;;;;;;;;;;;;;;20.79;54.58;100426.72;5089680;28;954;-32
2021/08/28 04:30:13;;;;;;;;;;;;;;;20.82;53.97;100430.94;5096494;28;1245;-43
2021/08/28 04:32:39;;;;;;;;;;;;;;;20.81;53.57;100431.94;5096060;28;807;-41
2021/08/28 04:35:04;;;;;;;;;;;;;;;20.68;53.19;100430.47;5096662;28;764;-38
2021/08/28 04:37:29;;;;;;;;;;;;;;;20.60;52.82;100435.69;5096661;28;785;-31
2021/08/28 04:39:55;;;;;;;;;;;;;;;20.53;52.34;100434.59;5096517;28;803;-33
2021/08/28 04:42:20;;;;;;;;;;;;;;;20.46;52.45;100433.47;5095299;28;969;-32
2021/08/28 04:44:45;;;;;;;;;;;;;;;20.28;52.63;100428.91;5096880;28;2022;-42
2021/08/28 04:47:10;;;;;;;;;;;;;;;20.21;52.35;100428.63;5096543;28;706;-35
2021/08/28 04:49:36;;;;;;;;;;;;;;;20.19;52.00;100427.94;5088234;28;1550;-33
2021/08/28 04:52:02;;;;;;;;;;;;;;;20.05;51.94;100424.72;5076297;28;814;-44
2021/08/28 04:54:27;;;;;;;;;;;;;;;19.92;52.13;100427.66;5075954;28;828;-34
2021/08/28 04:56:52;;;;;;;;;;;;;;;19.92;52.21;100433.00;5076214;28;997;-44
2021/08/28 04:59:18;;;;;;;;;;;;;;;19.83;52.50;100428.53;5076331;28;802;-31
2021/08/28 05:01:43;;;;;;;;;;;;;;;19.83;52.04;100425.84;5075982;28;827;-34
2021/08/28 05:04:08;;;;;;;;;;;;;;;19.80;52.22;100432.31;5075691;28;1917;-32
2021/08/28 05:06:34;;;;;;;;;;;;;;;19.94;52.78;100431.03;5075913;28;831;-43
2021/08/28 05:08:59;;;;;;;;;;;;;;;20.06;52.91;100431.75;5076196;28;791;-34
2021/08/28 05:11:24;;;;;;;;;;;;;;;20.13;52.93;100433.84;5075967;28;998;-35
2021/08/28 05:13:50;;;;;;;;;;;;;;;20.06;53.47;100431.75;5075982;28;742;-30
2021/08/28 05:16:15;;;;;;;;;;;;;;;20.04;53.31;100438.22;5075446;28;818;-43
2021/08/28 05:18:40;;;;;;;;;;;;;;;20.02;53.71;100446.34;5076053;28;744;-33
2021/08/28 05:21:05;;;;;;;;;;;;;;;20.01;53.77;100441.13;5076113;28;851;-33
2021/08/28 05:23:31;;;;;;;;;;;;;;;19.97;53.97;100440.56;5075863;28;1905;-34
2021/08/28 05:25:56;;;;;;;;;;;;;;;20.02;54.18;100443.66;5076013;28;780;-34
2021/08/28 05:28:21;;;;;;;;;;;;;;;20.13;54.20;100449.88;5076081;28;951;-35
2021/08/28 05:30:47;;;;;;;;;;;;;;;20.11;54.12;100447.34;5077658;28;1126;-44
2021/08/28 05:33:14;;;;;;;;;;;;;;;19.93;54.54;100441.84;5079568;28;791;-42
2021/08/28 05:35:39;;;;;;;;;;;;;;;20.02;54.66;100448.19;5079677;28;885;-35
2021/08/28 05:38:05;;;;;;;;;;;;;;;20.12;54.67;100448.19;5079136;28;843;-35
2021/08/28 05:40:30;;;;;;;;;;;;;;;20.07;55.08;100448.59;5078629;28;1092;-32
2021/08/28 05:42:55;;;;;;;;;;;;;;;20.07;54.87;100448.59;5079199;28;1965;-37
2021/08/28 05:45:20;;;;;;;;;;;;;;;20.06;54.74;100449.59;5091704;28;784;-34
2021/08/28 05:47:46;;;;;;;;;;;;;;;19.94;54.78;100440.88;5099689;28;796;-44
2021/08/28 05:50:11;;;;;;;;;;;;;;;19.91;55.08;100442.00;5086707;28;1623;-35
2021/08/28 05:52:36;;;;;;;;;;;;;;;20.00;54.95;100444.81;5078688;28;820;-32
2021/08/28 05:55:02;;;;;;;;;;;;;;;19.92;55.36;100442.81;5078898;28;775;-35
2021/08/28 05:57:28;;;;;;;;;;;;;;;19.97;54.64;100443.25;5079207;28;1014;-34
2021/08/28 05:59:54;;;;;;;;;;;;;;;20.01;54.52;100442.00;5079330;28;817;-37
2021/08/28 06:02:19;;;;;;;;;;;;;;;19.85;55.10;100449.72;5079182;28;1244;-42
2021/08/28 06:04:45;;;;;;;;;;;;;;;19.85;55.07;100450.59;5079567;28;1986;-33
2021/08/28 06:07:12;;;;;;;;;;;;;;;19.83;55.18;100447.22;5078508;28;829;-42
2021/08/28 06:09:38;;;;;;;;;;;;;;;19.90;54.96;100448.31;5079202;28;764;-36
2021/08/28 06:12:04;;;;;;;;;;;;;;;19.91;54.53;100450.00;5079132;28;982;-42
2021/08/28 06:14:29;;;;;;;;;;;;;;;19.99;54.35;100440.44;5079860;28;720;-35
2021/08/28 06:16:54;;;;;;;;;;;;;;;19.83;54.79;100448.03;5078924;28;808;-42
2021/08/28 06:19:20;;;;;;;;;;;;;;;19.87;55.17;100451.25;5079186;28;731;-35
2021/08/28 06:21:46;;;;;;;;;;;;;;;19.79;55.00;100443.13;5079329;28;760;-32
2021/08/28 06:24:11;;;;;;;;;;;;;;;19.95;54.88;100442.56;5078435;28;1905;-32
2021/08/28 06:26:36;;;;;;;;;;;;;;;19.88;55.05;100450.31;5078315;28;1074;-33
2021/08/28 06:29:04;;;;;;;;;;;;;;;19.89;55.15;100446.63;5078628;28;814;-41
2021/08/28 06:31:30;;;;;;;;;;;;;;;19.81;55.55;100444.69;5078715;28;792;-32
2021/08/28 06:33:55;;;;;;;;;;;;;;;19.83;55.34;100437.34;5078416;28;823;-44
2021/08/28 06:36:20;;;;;;;;;;;;;;;19.87;55.68;100440.59;5078653;28;776;-31
2021/08/28 06:38:45;;;;;;;;;;;;;;;19.96;55.67;100433.56;5078651;28;816;-43
2021/08/28 06:41:11;;;;;;;;;;;;;;;19.93;55.71;100426.69;5078143;28;824;-33
2021/08/28 06:43:36;;;;;;;;;;;;;;;19.99;56.23;100433.28;5078549;28;1905;-43
2021/08/28 06:46:01;;;;;;;;;;;;;;;19.93;56.40;100432.03;5077953;28;804;-36
2021/08/28 06:48:27;;;;;;;;;;;;;;;20.02;56.79;100435.66;5078217;28;1299;-32
2021/08/28 06:50:52;;;;;;;;;;;;;;;19.80;56.87;100429.63;5096762;28;1590;-41
2021/08/28 06:53:17;;;;;;;;;;;;;;;19.77;56.63;100431.75;5098647;28;855;-35
2021/08/28 06:55:43;;;;;;;;;;;;;;;19.75;56.14;100433.72;5098424;28;822;-37
2021/08/28 06:58:08;;;;;;;;;;;;;;;19.69;55.96;100430.63;5098093;28;997;-36
2021/08/28 07:00:33;;;;;;;;;;;;;;;19.62;56.23;100432.16;5098166;28;1126;-43
2021/08/28 07:02:59;;;;;;;;;;;;;;;19.62;56.22;100431.34;5098719;28;1909;-36
2021/08/28 07:05:24;;;;;;;;;;;;;;;22.31;51.61;100430.66;5098184;28;771;-42
2021/08/28 07:07:49;;;;;;;;;;;;;;;23.81;48.70;100428.47;5098257;28;784;-34
2021/08/28 07:10:15;;;;;;;;;;;;;;;24.36;48.46;100419.84;5098598;28;789;-42
2021/08/28 07:12:40;;;;;;;;;;;;;;;24.68;49.48;100425.28;5097433;28;993;-38
2021/08/28 07:15:06;;;;;;;;;;;;;;;22.80;50.62;100420.38;5097978;28;750;-35
2021/08/28 07:17:31;;;;;;;;;;;;;;;20.87;55.02;100415.28;5098182;28;792;-37
2021/08/28 07:19:56;;;;;;;;;;;;;;;20.23;55.98;100407.13;5098171;28;814;-36
2021/08/28 07:22:22;;;;;;;;;;;;;;;20.03;56.52;100409.81;5078098;28;815;-37
2021/08/28 07:24:47;;;;;;;;;;;;;;;20.12;57.49;100400.13;5077365;28;1902;-43
2021/08/28 07:27:12;;;;;;;;;;;;;;;20.26;57.99;100407.69;5077611;28;867;-42
2021/08/28 07:29:37;;;;;;;;;;;;;;;20.23;57.99;100407.13;5077526;28;728;-37
2021/08/28 07:32:03;;;;;;;;;;;;;;;20.21;58.00;100407.25;5077815;28;748;-44
2021/08/28 07:34:28;;;;;;;;;;;;;;;20.23;58.09;100401.78;5091342;28;772;-35
2021/08/28 07:36:53;;;;;;;;;;;;;;;20.38;57.77;100395.00;5097230;28;767;-33
2021/08/28 07:39:19;;;;;;;;;;;;;;;20.49;57.48;100393.94;5097666;28;796;-37
2021/08/28 07:41:44;;;;;;;;;;;;;;;20.41;57.71;100393.84;5097174;28;954;-43
2021/08/28 07:44:09;;;;;;;;;;;;;;;20.47;57.86;100397.78;5097436;28;1902;-38
2021/08/28 07:46:34;;;;;;;;;;;;;;;20.42;57.91;100390.16;5097643;28;827;-35
2021/08/28 07:49:00;;;;;;;;;;;;;;;20.39;58.06;100390.47;5094849;28;1562;-35
2021/08/28 07:51:25;;;;;;;;;;;;;;;20.49;58.27;100388.59;5076342;28;763;-42
2021/08/28 07:53:50;;;;;;;;;;;;;;;20.44;58.66;100390.88;5077168;28;819;-36
2021/08/28 07:56:17;;;;;;;;;;;;;;;20.46;58.27;100394.25;5076731;28;1010;-37
2021/08/28 07:58:42;;;;;;;;;;;;;;;20.39;58.61;100394.00;5076671;28;823;-40
2021/08/28 08:01:11;;;;;;;;;;;;;;;20.38;58.51;100391.47;5077337;28;858;-35
2021/08/28 08:03:36;;;;;;;;;;;;;;;20.38;58.66;100386.13;5077262;28;1909;-37
2021/08/28 08:06:01;;;;;;;;;;;;;;;20.26;58.73;100385.47;5076500;28;768;-38
2021/08/28 08:08:26;;;;;;;;;;;;;;;20.16;58.08;100382.81;5076892;28;827;-35
2021/08/28 08:10:52;;;;;;;;;;;;;;;20.13;58.55;100377.78;5077082;28;815;-38
2021/08/28 08:13:17;;;;;;;;;;;;;;;20.16;58.23;100381.00;5094190;28;910;-34
2021/08/28 08:15:42;;;;;;;;;;;;;;;20.17;58.25;100363.13;5096737;28;764;-38
2021/08/28 08:18:07;;;;;;;;;;;;;;;20.31;58.33;100365.34;5097235;28;858;-41
2021/08/28 08:20:33;;;;;;;;;;;;;;;20.16;58.44;100362.31;5077139;28;1147;-34
2021/08/28 08:22:58;;;;;;;;;;;;;;;20.29;57.93;100366.47;5076738;28;1906;-41
2021/08/28 08:25:24;;;;;;;;;;;;;;;20.26;58.00;100369.44;5077093;28;703;-41
2021/08/28 08:27:49;;;;;;;;;;;;;;;20.17;57.85;100358.63;5075055;28;1301;-38
2021/08/28 08:30:14;;;;;;;;;;;;;;;20.18;58.11;100360.34;5076719;28;791;-35
2021/08/28 08:32:39;;;;;;;;;;;;;;;20.16;57.83;100353.44;5076829;28;772;-36
2021/08/28 08:35:05;;;;;;;;;;;;;;;20.15;58.04;100355.25;5076257;28;855;-43
2021/08/28 08:37:30;;;;;;;;;;;;;;;20.18;58.57;100354.16;5075423;28;1105;-35
2021/08/28 08:39:55;;;;;;;;;;;;;;;20.05;58.33;100357.97;5076726;28;799;-42
2021/08/28 08:42:24;;;;;;;;;;;;;;;20.14;58.47;100358.06;5076203;28;966;-39
2021/08/28 08:44:49;;;;;;;;;;;;;;;20.08;58.56;100364.00;5076423;28;1985;-35
2021/08/28 08:47:15;;;;;;;;;;;;;;;19.93;58.46;100359.09;5075286;28;760;-45
2021/08/28 08:49:41;;;;;;;;;;;;;;;20.08;57.48;100354.19;5084462;28;1641;-37
2021/08/28 08:52:06;;;;;;;;;;;;;;;19.93;57.89;100356.44;5087219;28;795;-38
2021/08/28 08:54:31;;;;;;;;;;;;;;;19.81;57.89;100356.59;5074623;28;869;-38
2021/08/28 08:56:57;;;;;;;;;;;;;;;20.12;56.69;100357.41;5074380;28;1084;-38
2021/08/28 08:59:22;;;;;;;;;;;;;;;19.92;56.69;100349.38;5076394;28;756;-38
2021/08/28 09:01:47;;;;;;;;;;;;;;;22.21;53.10;100362.94;5075325;28;843;-43
2021/08/28 09:04:13;;;;;;;;;;;;;;;23.88;47.67;100358.78;5079930;28;1976;-41
2021/08/28 09:06:38;;;;;;;;;;;;;;;22.54;51.30;100363.09;5080090;28;882;-40
2021/08/28 09:09:04;;;;;;;;;;;;;;;20.63;55.76;100355.22;5080435;28;815;-41
2021/08/28 09:11:32;;;;;;;;;;;;;;;20.22;56.15;100354.69;5080174;28;931;-35
2021/08/28 09:14:17;;;;;;;;;;;;;;;20.02;57.01;100354.72;5079858;28;879;-41
2021/08/28 09:16:42;;;;;;;;;;;;;;;19.99;56.88;100344.31;5080292;28;819;-38
2021/08/28 09:19:08;;;;;;;;;;;;;;;20.15;56.80;100347.25;5080579;28;835;-39
2021/08/28 09:21:33;;;;;;;;;;;;;;;20.06;57.26;100348.13;5079822;28;783;-43
2021/08/28 09:23:59;;;;;;;;;;;;;;;20.11;57.05;100353.88;5079991;28;1913;-34
2021/08/28 09:26:26;;;;;;;;;;;;;;;20.06;57.45;100345.47;5080150;28;1006;-32
2021/08/28 09:28:55;;;;;;;;;;;;;;;20.11;57.62;100345.03;5079975;28;784;-37
2021/08/28 09:31:34;;;;;;;;;;;;;;;20.13;57.17;100341.22;5088438;28;818;-42
2021/08/28 09:34:18;;;;;;;;;;;;;;;20.12;56.61;100339.53;5100153;28;786;-37
2021/08/28 09:36:43;;;;;;;;;;;;;;;20.14;57.23;100344.72;5100269;28;787;-40
2021/08/28 09:39:08;;;;;;;;;;;;;;;20.19;57.07;100332.63;5099969;28;856;-41
2021/08/28 09:41:36;;;;;;;;;;;;;;;20.15;57.33;100331.22;5099490;28;938;-41
2021/08/28 09:44:07;;;;;;;;;;;;;;;20.02;57.07;100336.03;5099304;28;1913;-35
2021/08/28 09:46:32;;;;;;;;;;;;;;;19.89;57.50;100323.84;5099743;28;839;-38
2021/08/28 09:48:59;;;;;;;;;;;;;;;19.95;57.12;100323.25;5097013;28;1526;-33
2021/08/28 09:51:24;;;;;;;;;;;;;;;20.00;56.93;100333.50;5079128;28;771;-45
2021/08/28 09:53:58;;;;;;;;;;;;;;;19.98;57.15;100316.78;5078434;28;779;-37
2021/08/28 09:56:24;;;;;;;;;;;;;;;20.02;57.19;100315.50;5079386;28;907;-43
2021/08/28 09:58:50;;;;;;;;;;;;;;;22.32;53.80;100314.44;5078713;28;803;-35
2021/08/28 10:01:15;;;;;;;;;;;;;;;22.73;52.51;100315.63;5079516;28;945;-42
2021/08/28 10:03:40;;;;;;;;;;;;;;;20.58;56.20;100312.06;5079477;28;1922;-38
2021/08/28 10:06:06;;;;;;;;;;;;;;;20.28;57.73;100314.03;5077429;28;827;-43
2021/08/28 10:08:31;;;;;;;;;;;;;;;20.25;57.70;100314.34;5078345;28;693;-36
2021/08/28 10:10:56;;;;;;;;;;;;;;;20.18;58.10;100311.41;5079362;28;787;-36
2021/08/28 10:13:22;;;;;;;;;;;;;;;20.14;58.29;100312.69;5077038;28;1182;-34
2021/08/28 10:15:47;;;;;;;;;;;;;;;20.12;58.55;100309.34;5078703;28;760;-42
2021/08/28 10:18:13;;;;;;;;;;;;;;;21.28;60.05;100310.63;5077883;28;752;-39
2021/08/28 10:20:39;;;;;;;;;;;;;;;23.71;49.62;100312.31;5078464;28;487;-38
2021/08/28 10:23:04;;;;;;;;;;;;;;;21.34;55.95;100319.84;5079165;28;1971;-42
2021/08/28 10:25:30;;;;;;;;;;;;;;;20.51;56.84;100316.31;5079112;28;782;-36
2021/08/28 10:27:56;;;;;;;;;;;;;;;20.50;57.10;100320.00;5078485;28;1002;-42
2021/08/28 10:30:22;;;;;;;;;;;;;;;20.21;57.01;100318.28;5078698;28;824;-36
2021/08/28 10:32:47;;;;;;;;;;;;;;;20.24;56.58;100320.66;5079004;28;768;-40
2021/08/28 10:35:13;;;;;;;;;;;;;;;20.28;56.48;100312.22;5078389;28;807;-36
2021/08/28 10:37:38;;;;;;;;;;;;;;;20.18;56.60;100322.94;5078377;28;850;-41
2021/08/28 10:40:05;;;;;;;;;;;;;;;22.75;52.30;100322.47;5078339;28;835;-34
2021/08/28 10:42:32;;;;;;;;;;;;;;;24.27;48.03;100329.50;5078524;28;955;-32
2021/08/28 10:44:58;;;;;;;;;;;;;;;21.50;55.79;100335.19;5078611;28;1897;-38
2021/08/28 10:47:26;;;;;;;;;;;;;;;20.87;57.21;100326.25;5078757;28;755;-39
2021/08/28 10:49:51;;;;;;;;;;;;;;;20.48;57.61;100330.81;5087568;28;1530;-35
2021/08/28 10:52:23;;;;;;;;;;;;;;;20.38;57.56;100322.00;5098747;28;792;-38
2021/08/28 10:54:55;;;;;;;;;;;;;;;20.19;57.35;100329.97;5098774;28;747;-34
2021/08/28 10:57:25;;;;;;;;;;;;;;;20.20;57.28;100328.13;5097159;28;969;-35
2021/08/28 11:00:01;;;;;;;;;;;;;;;20.05;57.25;100331.25;5098518;28;1131;-35
2021/08/28 11:02:46;;;;;;;;;;;;;;;20.15;56.77;100331.22;5098243;28;845;-37
2021/08/28 11:05:15;;;;;;;;;;;;;;;22.26;53.72;100336.53;5097908;28;894;-35
2021/08/28 11:07:42;;;;;;;;;;;;;;;24.08;47.78;100321.63;5098544;28;856;-38
2021/08/28 11:10:10;;;;;;;;;;;;;;;20.95;54.23;100325.50;5098100;28;730;-38
2021/08/28 11:12:53;;;;;;;;;;;;;;;20.22;55.47;100325.31;5097698;28;941;-38
2021/08/28 11:15:39;;;;;;;;;;;;;;;19.98;55.91;100323.97;5098062;28;828;-34
2021/08/28 11:18:14;;;;;;;;;;;;;;;20.03;55.11;100314.56;5097397;28;1768;-34
2021/08/28 11:20:42;;;;;;;;;;;;;;;19.93;55.21;100308.38;5097800;28;796;-39
2021/08/28 11:23:12;;;;;;;;;;;;;;;19.99;55.15;100304.28;5098113;28;1914;-38
2021/08/28 11:25:41;;;;;;;;;;;;;;;21.61;54.36;100306.50;5096586;28;749;-33
2021/08/28 11:28:06;;;;;;;;;;;;;;;23.84;46.71;100301.03;5096687;28;957;-39
2021/08/28 11:30:47;;;;;;;;;;;;;;;24.68;45.07;100315.00;5088249;28;749;-46
2021/08/28 11:33:25;;;;;;;;;;;;;;;21.07;53.22;100310.91;5077200;28;735;-35
2021/08/28 11:35:51;;;;;;;;;;;;;;;20.29;54.09;100297.88;5077968;28;795;-35
2021/08/28 11:38:26;;;;;;;;;;;;;;;20.24;54.36;100300.13;5077688;28;738;-37
2021/08/28 11:41:01;;;;;;;;;;;;;;;19.96;54.70;100300.06;5077063;28;799;-35
2021/08/28 11:43:30;;;;;;;;;;;;;;;19.91;54.35;100307.69;5077818;28;1906;-39
2021/08/28 11:46:02;;;;;;;;;;;;;;;19.89;54.61;100302.47;5077251;28;747;-37
2021/08/28 11:48:30;;;;;;;;;;;;;;;20.28;56.87;100306.03;5076934;28;1303;-36
2021/08/28 11:50:55;;;;;;;;;;;;;;;23.24;47.43;100309.28;5096233;28;1613;-44
2021/08/28 11:53:27;;;;;;;;;;;;;;;24.42;44.46;100311.59;5097564;28;875;-35
2021/08/28 11:56:02;;;;;;;;;;;;;;;25.00;43.30;100315.84;5097131;28;822;-41
2021/08/28 11:58:28;;;;;;;;;;;;;;;23.05;48.08;100305.94;5096931;28;934;-36
2021/08/28 12:00:54;;;;;;;;;;;;;;;20.94;52.04;100311.28;5095813;28;911;-35
2021/08/28 12:03:19;;;;;;;;;;;;;;;20.18;53.08;100306.94;5081409;28;1971;-34
2021/08/28 12:05:44;;;;;;;;;;;;;;;20.12;53.17;100306.66;5076982;28;759;-38
2021/08/28 12:08:09;;;;;;;;;;;;;;;20.02;53.31;100309.34;5075264;28;958;-37
2021/08/28 12:10:35;;;;;;;;;;;;;;;20.04;52.85;100304.72;5075865;28;807;-35
2021/08/28 12:13:01;;;;;;;;;;;;;;;19.98;53.24;100310.59;5075237;28;1511;-35
2021/08/28 12:15:27;;;;;;;;;;;;;;;20.24;56.43;100301.94;5076956;28;756;-39
2021/08/28 12:17:52;;;;;;;;;;;;;;;23.23;46.46;100297.75;5076799;28;794;-34
2021/08/28 12:20:23;;;;;;;;;;;;;;;24.44;43.82;100298.81;5076575;28;851;-42
2021/08/28 12:22:49;;;;;;;;;;;;;;;25.05;42.28;100296.47;5076949;28;1955;-33
2021/08/28 12:25:14;;;;;;;;;;;;;;;23.48;46.63;100296.91;5076626;28;855;-39
2021/08/28 12:27:39;;;;;;;;;;;;;;;21.05;51.23;100288.84;5076510;28;943;-35
2021/08/28 12:30:05;;;;;;;;;;;;;;;20.07;52.38;100285.72;5075179;28;1286;-33
2021/08/28 12:32:30;;;;;;;;;;;;;;;20.12;52.77;100286.13;5076488;28;734;-34
2021/08/28 12:34:56;;;;;;;;;;;;;;;19.88;53.08;100271.44;5075380;28;792;-35
2021/08/28 12:37:24;;;;;;;;;;;;;;;19.88;53.07;100279.47;5076855;28;826;-33
2021/08/28 12:39:51;;;;;;;;;;;;;;;19.94;53.13;100280.69;5076256;28;747;-33
2021/08/28 12:42:17;;;;;;;;;;;;;;;19.79;53.42;100283.84;5076321;28;946;-34
2021/08/28 12:44:45;;;;;;;;;;;;;;;22.73;48.22;100278.91;5076661;28;1973;-36
2021/08/28 12:47:11;;;;;;;;;;;;;;;24.31;43.87;100280.59;5075670;28;855;-36
2021/08/28 12:49:39;;;;;;;;;;;;;;;24.97;42.43;100278.53;5084223;28;1566;-37